sensor_id;sensor_type;location;lat;lon;timestamp;pressure;altitude;pressure_sealevel;temperature;humidity
20955;BME280;10636;19.390;-99.256;2023-05-09T00:02:29;77929.19;;;26.36;33.36
20955;BME280;10636;19.390;-99.256;2023-05-09T00:05:00;77925.69;;;26.31;33.17
20955;BME280;10636;19.390;-99.256;2023-05-09T00:07:35;77935.63;;;26.26;33.09
20955;BME280;10636;19.390;-99.256;2023-05-09T00:10:07;77940.19;;;26.22;32.40
20955;BME280;10636;19.390;-99.256;2023-05-09T00:12:37;77947.47;;;26.19;32.78
20955;BME280;10636;19.390;-99.256;2023-05-09T00:15:06;77954.78;;;26.17;32.67
20955;BME280;10636;19.390;-99.256;2023-05-09T00:17:35;77960.09;;;26.15;32.50
20955;BME280;10636;19.390;-99.256;2023-05-09T00:20:06;77976.16;;;26.13;33.10
20955;BME280;10636;19.390;-99.256;2023-05-09T00:22:38;77983.59;;;26.14;32.83
20955;BME280;10636;19.390;-99.256;2023-05-09T00:25:10;77994.91;;;26.11;32.79
20955;BME280;10636;19.390;-99.256;2023-05-09T00:27:40;78005.50;;;26.06;33.17
20955;BME280;10636;19.390;-99.256;2023-05-09T00:30:09;78016.19;;;26.04;33.07
20955;BME280;10636;19.390;-99.256;2023-05-09T00:32:38;78024.81;;;26.01;33.00
20955;BME280;10636;19.390;-99.256;2023-05-09T00:35:07;78033.75;;;26.07;32.97
20955;BME280;10636;19.390;-99.256;2023-05-09T00:37:36;78042.72;;;26.14;32.99
20955;BME280;10636;19.390;-99.256;2023-05-09T00:40:06;78035.97;;;26.13;32.70
20955;BME280;10636;19.390;-99.256;2023-05-09T00:42:35;78056.38;;;26.20;33.22
20955;BME280;10636;19.390;-99.256;2023-05-09T00:45:06;78059.16;;;26.22;32.55
20955;BME280;10636;19.390;-99.256;2023-05-09T00:47:34;77997.84;;;25.79;32.35
20955;BME280;10636;19.390;-99.256;2023-05-09T00:50:04;78051.09;;;26.22;32.36
20955;BME280;10636;19.390;-99.256;2023-05-09T00:52:35;78055.16;;;26.23;32.33
20955;BME280;10636;19.390;-99.256;2023-05-09T00:55:05;78050.47;;;26.24;32.23
20955;BME280;10636;19.390;-99.256;2023-05-09T00:57:35;78050.47;;;26.24;31.92
20955;BME280;10636;19.390;-99.256;2023-05-09T01:00:07;78057.91;;;26.25;32.11
20955;BME280;10636;19.390;-99.256;2023-05-09T01:02:41;78021.91;;;25.95;32.17
20955;BME280;10636;19.390;-99.256;2023-05-09T01:05:10;78061.91;;;26.24;31.93
20955;BME280;10636;19.390;-99.256;2023-05-09T01:07:45;78061.91;;;26.24;31.90
20955;BME280;10636;19.390;-99.256;2023-05-09T01:10:22;78072.66;;;26.24;31.65
20955;BME280;10636;19.390;-99.256;2023-05-09T01:12:58;78071.28;;;26.23;31.85
20955;BME280;10636;19.390;-99.256;2023-05-09T01:15:35;78080.81;;;26.26;31.78
20955;BME280;10636;19.390;-99.256;2023-05-09T01:18:08;78076.72;;;26.25;31.74
20955;BME280;10636;19.390;-99.256;2023-05-09T01:20:42;78083.41;;;26.24;32.07
20955;BME280;10636;19.390;-99.256;2023-05-09T01:23:24;78093.88;;;26.16;31.59
20955;BME280;10636;19.390;-99.256;2023-05-09T01:26:01;78064.84;;;25.75;31.61
20955;BME280;10636;19.390;-99.256;2023-05-09T01:28:55;78113.28;;;25.95;32.03
20955;BME280;10636;19.390;-99.256;2023-05-09T01:31:31;78135.59;;;25.99;31.85
20955;BME280;10636;19.390;-99.256;2023-05-09T01:34:05;78120.69;;;25.96;32.26
20955;BME280;10636;19.390;-99.256;2023-05-09T01:36:42;78109.81;;;25.92;32.25
20955;BME280;10636;19.390;-99.256;2023-05-09T01:39:16;78125.75;;;25.88;32.13
20955;BME280;10636;19.390;-99.256;2023-05-09T01:41:47;78130.28;;;25.84;32.08
20955;BME280;10636;19.390;-99.256;2023-05-09T01:44:16;78110.47;;;25.57;31.87
20955;BME280;10636;19.390;-99.256;2023-05-09T01:46:48;78144.91;;;25.78;31.80
20955;BME280;10636;19.390;-99.256;2023-05-09T01:49:18;78145.44;;;25.75;31.86
20955;BME280;10636;19.390;-99.256;2023-05-09T01:51:48;78153.38;;;25.73;31.93
20955;BME280;10636;19.390;-99.256;2023-05-09T01:54:18;78160.69;;;25.70;31.88
20955;BME280;10636;19.390;-99.256;2023-05-09T01:56:48;78164.56;;;25.67;31.91
20955;BME280;10636;19.390;-99.256;2023-05-09T01:59:17;78173.88;;;25.64;31.99
20955;BME280;10636;19.390;-99.256;2023-05-09T02:01:48;78179.09;;;25.60;31.85
20955;BME280;10636;19.390;-99.256;2023-05-09T02:04:18;78187.06;;;25.58;31.92
20955;BME280;10636;19.390;-99.256;2023-05-09T02:06:48;78185.38;;;25.49;31.69
20955;BME280;10636;19.390;-99.256;2023-05-09T02:09:17;78200.25;;;25.52;31.96
20955;BME280;10636;19.390;-99.256;2023-05-09T02:11:46;78194.56;;;25.44;31.84
20955;BME280;10636;19.390;-99.256;2023-05-09T02:14:17;78195.41;;;25.48;31.76
20955;BME280;10636;19.390;-99.256;2023-05-09T02:16:47;78184.88;;;25.37;32.33
20955;BME280;10636;19.390;-99.256;2023-05-09T02:19:15;78199.94;;;25.44;32.17
20955;BME280;10636;19.390;-99.256;2023-05-09T02:21:44;78198.56;;;25.43;31.90
20955;BME280;10636;19.390;-99.256;2023-05-09T02:24:12;78191.81;;;25.42;32.30
20955;BME280;10636;19.390;-99.256;2023-05-09T02:26:42;78195.19;;;25.42;32.33
20955;BME280;10636;19.390;-99.256;2023-05-09T02:29:11;78197.19;;;25.42;32.04
20955;BME280;10636;19.390;-99.256;2023-05-09T02:31:40;78191.09;;;25.41;32.07
20955;BME280;10636;19.390;-99.256;2023-05-09T02:34:11;78184.88;;;25.37;32.20
20955;BME280;10636;19.390;-99.256;2023-05-09T02:36:40;78188.09;;;25.33;32.46
20955;BME280;10636;19.390;-99.256;2023-05-09T02:39:09;78193.53;;;25.35;32.67
20955;BME280;10636;19.390;-99.256;2023-05-09T02:41:37;78182.22;;;25.37;32.42
20955;BME280;10636;19.390;-99.256;2023-05-09T02:44:06;78180.03;;;25.33;32.79
20955;BME280;10636;19.390;-99.256;2023-05-09T02:46:34;78180.03;;;25.33;33.10
20955;BME280;10636;19.390;-99.256;2023-05-09T02:49:03;78185.41;;;25.33;32.87
20955;BME280;10636;19.390;-99.256;2023-05-09T02:51:33;78183.41;;;25.34;33.15
20955;BME280;10636;19.390;-99.256;2023-05-09T02:54:01;78179.44;;;25.35;33.24
20955;BME280;10636;19.390;-99.256;2023-05-09T02:56:30;78173.44;;;25.36;33.04
20955;BME280;10636;19.390;-99.256;2023-05-09T02:58:58;78172.75;;;25.36;33.40
20955;BME280;10636;19.390;-99.256;2023-05-09T03:01:26;78176.22;;;25.38;33.29
20955;BME280;10636;19.390;-99.256;2023-05-09T03:03:55;78167.53;;;25.40;33.90
20955;BME280;10636;19.390;-99.256;2023-05-09T03:06:23;78167.63;;;25.42;33.88
20955;BME280;10636;19.390;-99.256;2023-05-09T03:08:53;78183.66;;;25.40;34.00
20955;BME280;10636;19.390;-99.256;2023-05-09T03:11:22;78179.53;;;25.37;33.90
20955;BME280;10636;19.390;-99.256;2023-05-09T03:13:50;78189.13;;;25.42;33.77
20955;BME280;10636;19.390;-99.256;2023-05-09T03:16:19;78201.25;;;25.43;34.33
20955;BME280;10636;19.390;-99.256;2023-05-09T03:18:47;78209.81;;;25.39;34.10
20955;BME280;10636;19.390;-99.256;2023-05-09T03:21:16;78218.38;;;25.36;34.26
20955;BME280;10636;19.390;-99.256;2023-05-09T03:23:47;78227.00;;;25.32;34.40
20955;BME280;10636;19.390;-99.256;2023-05-09T03:26:17;78219.38;;;25.26;33.96
20955;BME280;10636;19.390;-99.256;2023-05-09T03:28:46;78232.69;;;25.24;34.43
20955;BME280;10636;19.390;-99.256;2023-05-09T03:31:14;78225.97;;;25.23;34.36
20955;BME280;10636;19.390;-99.256;2023-05-09T03:33:43;78226.66;;;25.24;33.83
20955;BME280;10636;19.390;-99.256;2023-05-09T03:36:11;78219.22;;;25.22;34.13
20955;BME280;10636;19.390;-99.256;2023-05-09T03:38:39;78221.78;;;25.20;34.09
20955;BME280;10636;19.390;-99.256;2023-05-09T03:41:08;78220.41;;;25.19;34.11
20955;BME280;10636;19.390;-99.256;2023-05-09T03:43:38;78220.41;;;25.19;33.78
20955;BME280;10636;19.390;-99.256;2023-05-09T03:46:07;78219.81;;;25.21;34.15
20955;BME280;10636;19.390;-99.256;2023-05-09T03:48:35;78218.53;;;25.22;33.84
20955;BME280;10636;19.390;-99.256;2023-05-09T03:51:03;78214.00;;;25.26;33.68
20955;BME280;10636;19.390;-99.256;2023-05-09T03:53:32;78215.47;;;25.29;34.22
20955;BME280;10636;19.390;-99.256;2023-05-09T03:56:00;78203.41;;;25.30;33.78
20955;BME280;10636;19.390;-99.256;2023-05-09T03:58:29;78213.56;;;25.32;34.18
20955;BME280;10636;19.390;-99.256;2023-05-09T04:00:59;78209.56;;;25.33;34.10
20955;BME280;10636;19.390;-99.256;2023-05-09T04:03:27;78225.00;;;25.33;34.52
20955;BME280;10636;19.390;-99.256;2023-05-09T04:05:56;78218.31;;;25.34;34.25
20955;BME280;10636;19.390;-99.256;2023-05-09T04:08:25;78230.44;;;25.35;34.34
20955;BME280;10636;19.390;-99.256;2023-05-09T04:10:54;78237.78;;;25.34;34.57
20955;BME280;10636;19.390;-99.256;2023-05-09T04:13:22;78229.06;;;25.34;34.36
20955;BME280;10636;19.390;-99.256;2023-05-09T04:15:50;78237.09;;;25.34;34.26
20955;BME280;10636;19.390;-99.256;2023-05-09T04:18:20;78239.78;;;25.34;34.44
20955;BME280;10636;19.390;-99.256;2023-05-09T04:20:49;78239.78;;;25.34;34.41
20955;BME280;10636;19.390;-99.256;2023-05-09T04:23:17;78239.19;;;25.35;34.65
20955;BME280;10636;19.390;-99.256;2023-05-09T04:25:46;78237.19;;;25.36;34.40
20955;BME280;10636;19.390;-99.256;2023-05-09T04:28:16;78230.44;;;25.35;34.20
20955;BME280;10636;19.390;-99.256;2023-05-09T04:30:45;78235.81;;;25.35;34.21
20955;BME280;10636;19.390;-99.256;2023-05-09T04:33:13;78242.56;;;25.36;34.21
20955;BME280;10636;19.390;-99.256;2023-05-09T04:35:44;78239.88;;;25.36;34.08
20955;BME280;10636;19.390;-99.256;2023-05-09T04:38:12;78176.31;;;24.91;34.77
20955;BME280;10636;19.390;-99.256;2023-05-09T04:40:41;78233.72;;;25.33;34.66
20955;BME280;10636;19.390;-99.256;2023-05-09T04:43:10;78246.53;;;25.35;34.58
20955;BME280;10636;19.390;-99.256;2023-05-09T04:45:38;78251.91;;;25.35;34.37
20955;BME280;10636;19.390;-99.256;2023-05-09T04:48:07;78253.91;;;25.34;34.70
20955;BME280;10636;19.390;-99.256;2023-05-09T04:50:35;78251.22;;;25.34;34.39
20955;BME280;10636;19.390;-99.256;2023-05-09T04:53:05;78246.47;;;25.33;34.75
20955;BME280;10636;19.390;-99.256;2023-05-09T04:55:34;78258.50;;;25.32;34.85
20955;BME280;10636;19.390;-99.256;2023-05-09T04:58:02;78255.81;;;25.32;34.74
20955;BME280;10636;19.390;-99.256;2023-05-09T05:00:31;78259.19;;;25.32;34.64
20955;BME280;10636;19.390;-99.256;2023-05-09T05:02:59;78211.25;;;24.93;34.77
20955;BME280;10636;19.390;-99.256;2023-05-09T05:05:28;78269.25;;;25.32;34.67
20955;BME280;10636;19.390;-99.256;2023-05-09T05:07:56;78271.94;;;25.32;34.55
20955;BME280;10636;19.390;-99.256;2023-05-09T05:10:26;78274.63;;;25.32;34.55
20955;BME280;10636;19.390;-99.256;2023-05-09T05:12:55;78272.53;;;25.30;34.49
20955;BME280;10636;19.390;-99.256;2023-05-09T05:15:24;78267.16;;;25.30;34.42
20955;BME280;10636;19.390;-99.256;2023-05-09T05:17:52;78271.66;;;25.25;34.64
20955;BME280;10636;19.390;-99.256;2023-05-09T05:20:21;78272.53;;;25.30;34.39
20955;BME280;10636;19.390;-99.256;2023-05-09T05:22:49;78285.34;;;25.32;34.46
20955;BME280;10636;19.390;-99.256;2023-05-09T05:25:19;78277.22;;;25.29;34.79
20955;BME280;10636;19.390;-99.256;2023-05-09T05:27:49;78283.25;;;25.30;35.06
20955;BME280;10636;19.390;-99.256;2023-05-09T05:30:18;78285.19;;;25.27;34.85
20955;BME280;10636;19.390;-99.256;2023-05-09T05:32:47;78286.56;;;25.28;34.88
20955;BME280;10636;19.390;-99.256;2023-05-09T05:35:16;78277.22;;;25.29;34.61
20955;BME280;10636;19.390;-99.256;2023-05-09T05:37:44;78270.47;;;25.28;34.79
20955;BME280;10636;19.390;-99.256;2023-05-09T05:40:13;78271.16;;;25.29;34.72
20955;BME280;10636;19.390;-99.256;2023-05-09T05:42:41;78264.41;;;25.28;34.37
20955;BME280;10636;19.390;-99.256;2023-05-09T05:45:16;78208.56;;;24.93;34.60
20955;BME280;10636;19.390;-99.256;2023-05-09T05:47:44;78260.41;;;25.29;34.79
20955;BME280;10636;19.390;-99.256;2023-05-09T05:50:13;78265.78;;;25.29;34.58
20955;BME280;10636;19.390;-99.256;2023-05-09T05:52:41;78265.78;;;25.29;34.93
20955;BME280;10636;19.390;-99.256;2023-05-09T05:55:10;78269.06;;;25.27;34.39
20955;BME280;10636;19.390;-99.256;2023-05-09T05:57:38;78267.09;;;25.28;34.54
20955;BME280;10636;19.390;-99.256;2023-05-09T06:00:07;78221.97;;;24.93;35.00
20955;BME280;10636;19.390;-99.256;2023-05-09T06:02:40;78264.41;;;25.28;34.73
20955;BME280;10636;19.390;-99.256;2023-05-09T06:05:09;78272.44;;;25.28;34.66
20955;BME280;10636;19.390;-99.256;2023-05-09T06:07:38;78278.44;;;25.26;34.81
20955;BME280;10636;19.390;-99.256;2023-05-09T06:10:07;78270.97;;;25.25;34.69
20955;BME280;10636;19.390;-99.256;2023-05-09T06:12:36;78266.28;;;25.25;34.76
20955;BME280;10636;19.390;-99.256;2023-05-09T06:15:05;78263.59;;;25.25;34.82
20955;BME280;10636;19.390;-99.256;2023-05-09T06:17:34;78265.59;;;25.25;34.86
20955;BME280;10636;19.390;-99.256;2023-05-09T06:20:05;78259.53;;;25.24;34.33
20955;BME280;10636;19.390;-99.256;2023-05-09T06:22:34;78255.41;;;25.21;34.54
20955;BME280;10636;19.390;-99.256;2023-05-09T06:25:02;78263.59;;;25.25;34.60
20955;BME280;10636;19.390;-99.256;2023-05-09T06:27:31;78266.28;;;25.25;34.52
20955;BME280;10636;19.390;-99.256;2023-05-09T06:29:59;78262.91;;;25.25;34.57
20955;BME280;10636;19.390;-99.256;2023-05-09T06:32:27;78251.06;;;25.14;34.67
20955;BME280;10636;19.390;-99.256;2023-05-09T06:34:56;78264.84;;;25.22;34.21
20955;BME280;10636;19.390;-99.256;2023-05-09T06:37:26;78261.47;;;25.22;34.23
20955;BME280;10636;19.390;-99.256;2023-05-09T06:39:54;78248.72;;;25.22;34.33
20955;BME280;10636;19.390;-99.256;2023-05-09T06:42:23;78255.41;;;25.21;34.65
20955;BME280;10636;19.390;-99.256;2023-05-09T06:44:51;78263.34;;;25.19;34.20
20955;BME280;10636;19.390;-99.256;2023-05-09T06:47:20;78275.47;;;25.20;34.23
20955;BME280;10636;19.390;-99.256;2023-05-09T06:49:48;78271.41;;;25.19;34.14
20955;BME280;10636;19.390;-99.256;2023-05-09T06:52:17;78272.72;;;25.18;34.61
20955;BME280;10636;19.390;-99.256;2023-05-09T06:54:48;78267.34;;;25.18;34.18
20955;BME280;10636;19.390;-99.256;2023-05-09T06:57:16;78267.34;;;25.18;34.29
20955;BME280;10636;19.390;-99.256;2023-05-09T06:59:45;78267.34;;;25.18;34.69
20955;BME280;10636;19.390;-99.256;2023-05-09T07:02:13;78260.59;;;25.17;34.14
20955;BME280;10636;19.390;-99.256;2023-05-09T07:04:42;78264.59;;;25.16;34.29
20955;BME280;10636;19.390;-99.256;2023-05-09T07:07:11;78251.16;;;25.16;34.61
20955;BME280;10636;19.390;-99.256;2023-05-09T07:09:39;78190.16;;;24.69;34.45
20955;BME280;10636;19.390;-99.256;2023-05-09T07:12:16;78237.06;;;25.16;34.14
20955;BME280;10636;19.390;-99.256;2023-05-09T07:14:44;78231.00;;;25.15;34.54
20955;BME280;10636;19.390;-99.256;2023-05-09T07:17:12;78232.28;;;25.14;34.65
20955;BME280;10636;19.390;-99.256;2023-05-09T07:19:41;78221.56;;;25.14;34.42
20955;BME280;10636;19.390;-99.256;2023-05-09T07:22:09;78201.22;;;25.09;34.53
20955;BME280;10636;19.390;-99.256;2023-05-09T07:24:38;78212.81;;;25.14;34.27
20955;BME280;10636;19.390;-99.256;2023-05-09T07:27:07;78216.09;;;25.12;34.28
20955;BME280;10636;19.390;-99.256;2023-05-09T07:29:37;78215.41;;;25.12;34.34
20955;BME280;10636;19.390;-99.256;2023-05-09T07:32:05;78222.78;;;25.11;34.58
20955;BME280;10636;19.390;-99.256;2023-05-09T07:34:35;78213.34;;;25.10;34.64
20955;BME280;10636;19.390;-99.256;2023-05-09T07:37:03;78212.03;;;25.11;34.09
20955;BME280;10636;19.390;-99.256;2023-05-09T07:39:32;78205.88;;;25.09;34.29
20955;BME280;10636;19.390;-99.256;2023-05-09T07:42:00;78206.56;;;25.09;34.30
20955;BME280;10636;19.390;-99.256;2023-05-09T07:44:29;78193.09;;;25.07;34.13
20955;BME280;10636;19.390;-99.256;2023-05-09T07:46:59;78201.81;;;25.08;34.42
20955;BME280;10636;19.390;-99.256;2023-05-09T07:49:27;78201.13;;;25.07;34.13
20955;BME280;10636;19.390;-99.256;2023-05-09T07:51:56;78194.47;;;25.08;34.49
20955;BME280;10636;19.390;-99.256;2023-05-09T07:54:24;78180.97;;;25.06;34.51
20955;BME280;10636;19.390;-99.256;2023-05-09T07:56:53;78174.22;;;25.05;34.13
20955;BME280;10636;19.390;-99.256;2023-05-09T07:59:22;78164.50;;;24.98;34.57
20955;BME280;10636;19.390;-99.256;2023-05-09T08:01:50;78173.50;;;25.04;34.17
20955;BME280;10636;19.390;-99.256;2023-05-09T08:04:20;78168.84;;;25.05;34.02
20955;BME280;10636;19.390;-99.256;2023-05-09T08:06:51;78175.47;;;25.04;34.53
20955;BME280;10636;19.390;-99.256;2023-05-09T08:09:20;78164.69;;;25.02;34.12
20955;BME280;10636;19.390;-99.256;2023-05-09T08:11:48;78169.34;;;25.01;34.52
20955;BME280;10636;19.390;-99.256;2023-05-09T08:14:17;78161.13;;;24.97;34.10
20955;BME280;10636;19.390;-99.256;2023-05-09T08:16:45;78159.94;;;25.00;34.40
20955;BME280;10636;19.390;-99.256;2023-05-09T08:19:14;78152.47;;;24.99;34.27
20955;BME280;10636;19.390;-99.256;2023-05-09T08:21:44;78152.47;;;24.99;33.97
20955;BME280;10636;19.390;-99.256;2023-05-09T08:24:12;78153.09;;;24.97;34.02
20955;BME280;10636;19.390;-99.256;2023-05-09T08:26:40;78146.34;;;24.96;34.55
20955;BME280;10636;19.390;-99.256;2023-05-09T08:29:09;78144.28;;;24.95;34.58
20955;BME280;10636;19.390;-99.256;2023-05-09T08:31:37;78122.06;;;24.76;34.25
20955;BME280;10636;19.390;-99.256;2023-05-09T08:34:06;78134.13;;;24.93;34.45
20955;BME280;10636;19.390;-99.256;2023-05-09T08:36:34;78132.16;;;24.94;34.46
20955;BME280;10636;19.390;-99.256;2023-05-09T08:39:04;78133.38;;;24.91;34.05
20955;BME280;10636;19.390;-99.256;2023-05-09T08:41:34;78136.06;;;24.91;34.33
20955;BME280;10636;19.390;-99.256;2023-05-09T08:44:04;78140.63;;;24.88;34.39
20955;BME280;10636;19.390;-99.256;2023-05-09T08:46:35;78150.00;;;24.87;34.43
20955;BME280;10636;19.390;-99.256;2023-05-09T08:49:05;78133.22;;;24.87;33.92
20955;BME280;10636;19.390;-99.256;2023-05-09T08:51:34;78135.13;;;24.84;34.50
20955;BME280;10636;19.390;-99.256;2023-05-09T08:54:05;78130.53;;;24.87;34.55
20955;BME280;10636;19.390;-99.256;2023-05-09T08:56:34;78129.75;;;24.84;34.56
20955;BME280;10636;19.390;-99.256;2023-05-09T08:59:05;78135.81;;;24.85;34.75
20955;BME280;10636;19.390;-99.256;2023-05-09T09:01:34;78134.44;;;24.84;34.21
20955;BME280;10636;19.390;-99.256;2023-05-09T09:04:05;78128.97;;;24.82;34.66
20955;BME280;10636;19.390;-99.256;2023-05-09T09:06:34;78122.22;;;24.81;34.24
20955;BME280;10636;19.390;-99.256;2023-05-09T09:09:05;78120.84;;;24.80;34.18
20955;BME280;10636;19.390;-99.256;2023-05-09T09:11:35;78122.16;;;24.78;34.68
20955;BME280;10636;19.390;-99.256;2023-05-09T09:14:10;78117.38;;;24.77;34.30
20955;BME280;10636;19.390;-99.256;2023-05-09T09:16:40;78107.34;;;24.77;34.34
20955;BME280;10636;19.390;-99.256;2023-05-09T09:19:12;78097.75;;;24.72;34.34
20955;BME280;10636;19.390;-99.256;2023-05-09T09:21:44;78107.28;;;24.75;34.46
20955;BME280;10636;19.390;-99.256;2023-05-09T09:24:20;78108.59;;;24.74;34.15
20955;BME280;10636;19.390;-99.256;2023-05-09T09:26:49;78107.28;;;24.75;34.17
20955;BME280;10636;19.390;-99.256;2023-05-09T09:29:19;78107.28;;;24.75;34.18
20955;BME280;10636;19.390;-99.256;2023-05-09T09:31:52;78095.16;;;24.74;34.43
20955;BME280;10636;19.390;-99.256;2023-05-09T09:34:22;78095.06;;;24.72;34.79
20955;BME280;10636;19.390;-99.256;2023-05-09T09:36:50;78097.59;;;24.68;34.30
20955;BME280;10636;19.390;-99.256;2023-05-09T09:39:20;78101.66;;;24.69;34.86
20955;BME280;10636;19.390;-99.256;2023-05-09T09:41:49;78092.25;;;24.68;34.31
20955;BME280;10636;19.390;-99.256;2023-05-09T09:44:19;78089.56;;;24.68;34.20
20955;BME280;10636;19.390;-99.256;2023-05-09T09:46:48;78092.25;;;24.68;34.66
20955;BME280;10636;19.390;-99.256;2023-05-09T09:49:18;78089.47;;;24.66;34.57
20955;BME280;10636;19.390;-99.256;2023-05-09T09:51:51;78096.13;;;24.65;34.61
20955;BME280;10636;19.390;-99.256;2023-05-09T09:54:21;78084.72;;;24.65;34.80
20955;BME280;10636;19.390;-99.256;2023-05-09T09:56:51;78088.09;;;24.65;34.51
20955;BME280;10636;19.390;-99.256;2023-05-09T09:59:20;78081.25;;;24.62;34.17
20955;BME280;10636;19.390;-99.256;2023-05-09T10:01:57;78067.53;;;24.54;34.34
20955;BME280;10636;19.390;-99.256;2023-05-09T10:04:27;78075.19;;;24.62;34.43
20955;BME280;10636;19.390;-99.256;2023-05-09T10:06:57;78078.56;;;24.62;34.73
20955;BME280;10636;19.390;-99.256;2023-05-09T10:09:27;78091.28;;;24.62;34.12
20955;BME280;10636;19.390;-99.256;2023-05-09T10:12:00;78094.66;;;24.62;34.46
20955;BME280;10636;19.390;-99.256;2023-05-09T10:14:29;78087.91;;;24.61;34.28
20955;BME280;10636;19.390;-99.256;2023-05-09T10:17:00;78094.50;;;24.58;34.42
20955;BME280;10636;19.390;-99.256;2023-05-09T10:19:29;78097.28;;;24.60;34.15
20955;BME280;10636;19.390;-99.256;2023-05-09T10:22:01;78101.25;;;24.59;34.31
20955;BME280;10636;19.390;-99.256;2023-05-09T10:24:34;78097.28;;;24.60;34.08
20955;BME280;10636;19.390;-99.256;2023-05-09T10:27:05;78098.66;;;24.61;34.60
20955;BME280;10636;19.390;-99.256;2023-05-09T10:29:35;78101.25;;;24.59;34.54
20955;BME280;10636;19.390;-99.256;2023-05-09T10:32:14;78098.66;;;24.61;34.48
20955;BME280;10636;19.390;-99.256;2023-05-09T10:34:48;78098.66;;;24.61;34.08
20955;BME280;10636;19.390;-99.256;2023-05-09T10:37:16;78095.91;;;24.59;34.61
20955;BME280;10636;19.390;-99.256;2023-05-09T10:39:47;78094.34;;;24.54;34.25
20955;BME280;10636;19.390;-99.256;2023-05-09T10:42:19;78084.81;;;24.51;34.34
20955;BME280;10636;19.390;-99.256;2023-05-09T10:44:48;78096.41;;;24.56;34.64
20955;BME280;10636;19.390;-99.256;2023-05-09T10:47:17;78089.06;;;24.56;34.47
20955;BME280;10636;19.390;-99.256;2023-05-09T10:49:46;78091.72;;;24.56;34.19
20955;BME280;10636;19.390;-99.256;2023-05-09T10:52:16;78090.44;;;24.57;34.33
20955;BME280;10636;19.390;-99.256;2023-05-09T10:54:46;78087.06;;;24.57;34.38
20955;BME280;10636;19.390;-99.256;2023-05-09T10:57:26;78091.72;;;24.56;34.70
20955;BME280;10636;19.390;-99.256;2023-05-09T10:59:55;78095.03;;;24.55;34.17
20955;BME280;10636;19.390;-99.256;2023-05-09T11:02:24;78090.34;;;24.55;34.14
20955;BME280;10636;19.390;-99.256;2023-05-09T11:05:15;78088.97;;;24.54;34.73
20955;BME280;10636;19.390;-99.256;2023-05-09T11:07:44;78101.78;;;24.56;34.29
20955;BME280;10636;19.390;-99.256;2023-05-09T11:10:16;78099.72;;;24.54;34.08
20955;BME280;10636;19.390;-99.256;2023-05-09T11:12:54;78100.91;;;24.51;34.56
20955;BME280;10636;19.390;-99.256;2023-05-09T11:15:23;78106.28;;;24.51;34.67
20955;BME280;10636;19.390;-99.256;2023-05-09T11:18:04;78100.84;;;24.49;34.42
20955;BME280;10636;19.390;-99.256;2023-05-09T11:20:33;78106.88;;;24.49;34.30
20955;BME280;10636;19.390;-99.256;2023-05-09T11:23:03;78103.53;;;24.49;34.86
20955;BME280;10636;19.390;-99.256;2023-05-09T11:25:34;78096.78;;;24.48;34.69
20955;BME280;10636;19.390;-99.256;2023-05-09T11:28:03;78096.78;;;24.48;34.23
20955;BME280;10636;19.390;-99.256;2023-05-09T11:30:37;78104.81;;;24.48;34.29
20955;BME280;10636;19.390;-99.256;2023-05-09T11:33:06;78103.53;;;24.49;34.59
20955;BME280;10636;19.390;-99.256;2023-05-09T11:36:15;78116.84;;;24.47;34.80
20955;BME280;10636;19.390;-99.256;2023-05-09T11:38:44;78116.84;;;24.47;34.71
20955;BME280;10636;19.390;-99.256;2023-05-09T11:41:14;78120.13;;;24.45;34.50
20955;BME280;10636;19.390;-99.256;2023-05-09T11:43:43;78102.47;;;24.24;34.60
20955;BME280;10636;19.390;-99.256;2023-05-09T11:46:11;78119.44;;;24.45;35.05
20955;BME280;10636;19.390;-99.256;2023-05-09T11:48:40;78112.69;;;24.44;34.49
20955;BME280;10636;19.390;-99.256;2023-05-09T11:51:15;78122.03;;;24.43;35.07
20955;BME280;10636;19.390;-99.256;2023-05-09T11:53:45;78130.16;;;24.45;34.65
20955;BME280;10636;19.390;-99.256;2023-05-09T11:56:15;78130.16;;;24.45;34.84
20955;BME280;10636;19.390;-99.256;2023-05-09T11:58:44;78127.47;;;24.45;34.98
20955;BME280;10636;19.390;-99.256;2023-05-09T12:01:13;78128.09;;;24.43;34.71
20955;BME280;10636;19.390;-99.256;2023-05-09T12:03:42;78123.41;;;24.44;34.76
20955;BME280;10636;19.390;-99.256;2023-05-09T12:06:15;78125.47;;;24.45;35.17
20955;BME280;10636;19.390;-99.256;2023-05-09T12:08:44;78138.19;;;24.45;34.93
20955;BME280;10636;19.390;-99.256;2023-05-09T12:11:14;78148.91;;;24.45;35.36
20955;BME280;10636;19.390;-99.256;2023-05-09T12:13:46;78142.19;;;24.44;35.04
20955;BME280;10636;19.390;-99.256;2023-05-09T12:16:16;78134.13;;;24.44;35.14
20955;BME280;10636;19.390;-99.256;2023-05-09T12:18:46;78128.69;;;24.42;35.22
20955;BME280;10636;19.390;-99.256;2023-05-09T12:21:15;78113.91;;;24.41;35.44
20955;BME280;10636;19.390;-99.256;2023-05-09T12:23:43;78121.34;;;24.42;34.79
20955;BME280;10636;19.390;-99.256;2023-05-09T12:26:12;78131.47;;;24.44;35.23
20955;BME280;10636;19.390;-99.256;2023-05-09T12:28:42;78143.47;;;24.43;35.12
20955;BME280;10636;19.390;-99.256;2023-05-09T12:31:11;78139.44;;;24.42;35.08
20955;BME280;10636;19.390;-99.256;2023-05-09T12:33:40;78129.81;;;24.37;35.15
20955;BME280;10636;19.390;-99.256;2023-05-09T12:36:10;78071.72;;;23.94;35.21
20955;BME280;10636;19.390;-99.256;2023-05-09T12:38:39;78130.81;;;24.30;35.04
20955;BME280;10636;19.390;-99.256;2023-05-09T12:41:08;78133.94;;;24.24;35.36
20955;BME280;10636;19.390;-99.256;2023-05-09T12:43:38;78120.28;;;24.18;35.04
20955;BME280;10636;19.390;-99.256;2023-05-09T12:46:08;78133.00;;;24.17;34.89
20955;BME280;10636;19.390;-99.256;2023-05-09T12:48:39;78142.22;;;24.14;35.55
20955;BME280;10636;19.390;-99.256;2023-05-09T12:51:09;78148.22;;;24.13;34.90
20955;BME280;10636;19.390;-99.256;2023-05-09T12:53:38;78156.75;;;24.09;35.42
20955;BME280;10636;19.390;-99.256;2023-05-09T12:56:12;78164.72;;;24.07;35.65